Aylesford, Canada
Current Conditions -  °F | °C
As of 12:00 PM on Sunday 21 Dec 2014 (Local Time) from CYZX Reporting Station
Overcast Overcast  
Wind Chill: 26°   Ceiling: 2200
Heat Index: 32°   Visibility: 15mi
Dew Point: 23°   Wind: 6mph
Humidity: 69%   Direction: 90°E
Pressure: 30.36"   Gusts: NA
Location:  45.03°N, 64.84°W
Report Text: CYZX 211600Z 09005KT 15SM OVC022 M00/M05 A3036 RMK SC8 WNDY HILL 11005KT SLP283
Loading
Personal Weather Stations






























Interactive Weather Map New forecast layout! Learn more

10-Day Weather Forecast

Advertisements
Track Severe Weather on mobile